sensor_id;sensor_type;location;lat;lon;timestamp;temperature;humidity
73780;SHT30;62093;37.614;15.072;2024-01-25T00:00:19;15.47;57.92
73780;SHT30;62093;37.614;15.072;2024-01-25T00:02:45;15.49;57.94
73780;SHT30;62093;37.614;15.072;2024-01-25T00:05:11;15.46;57.80
73780;SHT30;62093;37.614;15.072;2024-01-25T00:07:47;15.46;58.18
73780;SHT30;62093;37.614;15.072;2024-01-25T00:10:15;15.43;57.44
73780;SHT30;62093;37.614;15.072;2024-01-25T00:12:42;15.41;57.87
73780;SHT30;62093;37.614;15.072;2024-01-25T00:15:09;15.40;58.00
73780;SHT30;62093;37.614;15.072;2024-01-25T00:17:36;15.44;58.27
73780;SHT30;62093;37.614;15.072;2024-01-25T00:20:03;15.44;58.11
73780;SHT30;62093;37.614;15.072;2024-01-25T00:22:30;15.43;58.00
73780;SHT30;62093;37.614;15.072;2024-01-25T00:24:56;15.46;58.15
73780;SHT30;62093;37.614;15.072;2024-01-25T00:27:23;15.40;58.19
73780;SHT30;62093;37.614;15.072;2024-01-25T00:29:49;15.43;57.96
73780;SHT30;62093;37.614;15.072;2024-01-25T00:32:15;15.43;58.43
73780;SHT30;62093;37.614;15.072;2024-01-25T00:34:41;15.41;57.60
73780;SHT30;62093;37.614;15.072;2024-01-25T00:37:07;15.39;57.51
73780;SHT30;62093;37.614;15.072;2024-01-25T00:39:33;15.37;57.14
73780;SHT30;62093;37.614;15.072;2024-01-25T00:42:04;15.40;57.48
73780;SHT30;62093;37.614;15.072;2024-01-25T00:44:31;15.43;57.63
73780;SHT30;62093;37.614;15.072;2024-01-25T00:46:58;15.44;57.31
73780;SHT30;62093;37.614;15.072;2024-01-25T00:49:24;15.41;57.51
73780;SHT30;62093;37.614;15.072;2024-01-25T00:51:58;15.41;57.01
73780;SHT30;62093;37.614;15.072;2024-01-25T00:54:24;15.44;57.30
73780;SHT30;62093;37.614;15.072;2024-01-25T00:56:51;15.43;57.64
73780;SHT30;62093;37.614;15.072;2024-01-25T00:59:21;15.40;57.27
73780;SHT30;62093;37.614;15.072;2024-01-25T01:01:48;15.37;56.82
73780;SHT30;62093;37.614;15.072;2024-01-25T01:04:15;15.41;57.58
73780;SHT30;62093;37.614;15.072;2024-01-25T01:06:41;15.41;57.06
73780;SHT30;62093;37.614;15.072;2024-01-25T01:09:07;15.46;57.13
73780;SHT30;62093;37.614;15.072;2024-01-25T01:11:33;15.37;57.09
73780;SHT30;62093;37.614;15.072;2024-01-25T01:13:59;15.44;57.12
73780;SHT30;62093;37.614;15.072;2024-01-25T01:16:26;15.44;57.35
73780;SHT30;62093;37.614;15.072;2024-01-25T01:18:51;15.44;56.89
73780;SHT30;62093;37.614;15.072;2024-01-25T01:21:17;15.40;57.57
73780;SHT30;62093;37.614;15.072;2024-01-25T01:23:43;15.41;57.22
73780;SHT30;62093;37.614;15.072;2024-01-25T01:26:09;15.44;57.41
73780;SHT30;62093;37.614;15.072;2024-01-25T01:28:36;15.43;57.39
73780;SHT30;62093;37.614;15.072;2024-01-25T01:31:02;15.44;57.39
73780;SHT30;62093;37.614;15.072;2024-01-25T01:33:28;15.44;56.99
73780;SHT30;62093;37.614;15.072;2024-01-25T01:35:54;15.49;57.42
73780;SHT30;62093;37.614;15.072;2024-01-25T01:38:20;15.44;57.20
73780;SHT30;62093;37.614;15.072;2024-01-25T01:40:46;15.41;57.19
73780;SHT30;62093;37.614;15.072;2024-01-25T01:43:19;15.40;56.99
73780;SHT30;62093;37.614;15.072;2024-01-25T01:45:45;15.44;57.32
73780;SHT30;62093;37.614;15.072;2024-01-25T01:48:12;15.41;56.94
73780;SHT30;62093;37.614;15.072;2024-01-25T01:50:39;15.43;56.91
73780;SHT30;62093;37.614;15.072;2024-01-25T01:53:05;15.43;57.41
73780;SHT30;62093;37.614;15.072;2024-01-25T01:55:31;15.39;57.36
73780;SHT30;62093;37.614;15.072;2024-01-25T01:57:59;15.40;57.50
73780;SHT30;62093;37.614;15.072;2024-01-25T02:00:26;15.40;56.80
73780;SHT30;62093;37.614;15.072;2024-01-25T02:02:52;15.37;56.88
73780;SHT30;62093;37.614;15.072;2024-01-25T02:05:18;15.41;57.30
73780;SHT30;62093;37.614;15.072;2024-01-25T02:07:44;15.40;56.84
73780;SHT30;62093;37.614;15.072;2024-01-25T02:10:11;15.39;57.11
73780;SHT30;62093;37.614;15.072;2024-01-25T02:12:37;15.40;57.42
73780;SHT30;62093;37.614;15.072;2024-01-25T02:15:04;15.44;57.48
73780;SHT30;62093;37.614;15.072;2024-01-25T02:17:30;15.39;57.39
73780;SHT30;62093;37.614;15.072;2024-01-25T02:19:56;15.39;57.60
73780;SHT30;62093;37.614;15.072;2024-01-25T02:22:22;15.43;56.92
73780;SHT30;62093;37.614;15.072;2024-01-25T02:24:48;15.39;56.84
73780;SHT30;62093;37.614;15.072;2024-01-25T02:27:14;15.36;57.41
73780;SHT30;62093;37.614;15.072;2024-01-25T02:29:41;15.36;56.69
73780;SHT30;62093;37.614;15.072;2024-01-25T02:32:07;15.39;57.24
73780;SHT30;62093;37.614;15.072;2024-01-25T02:34:33;15.34;57.05
73780;SHT30;62093;37.614;15.072;2024-01-25T02:36:59;15.37;57.40
73780;SHT30;62093;37.614;15.072;2024-01-25T02:39:25;15.33;56.89
73780;SHT30;62093;37.614;15.072;2024-01-25T02:41:51;15.33;57.33
73780;SHT30;62093;37.614;15.072;2024-01-25T02:44:17;15.34;57.94
73780;SHT30;62093;37.614;15.072;2024-01-25T02:46:43;15.36;57.47
73780;SHT30;62093;37.614;15.072;2024-01-25T02:49:10;15.34;57.56
73780;SHT30;62093;37.614;15.072;2024-01-25T02:51:36;15.34;57.62
73780;SHT30;62093;37.614;15.072;2024-01-25T02:54:02;15.34;57.67
73780;SHT30;62093;37.614;15.072;2024-01-25T02:56:29;15.34;57.95
73780;SHT30;62093;37.614;15.072;2024-01-25T02:59:03;15.31;57.38
73780;SHT30;62093;37.614;15.072;2024-01-25T03:01:38;15.33;57.52
73780;SHT30;62093;37.614;15.072;2024-01-25T03:04:04;15.29;57.10
73780;SHT30;62093;37.614;15.072;2024-01-25T03:06:30;15.33;57.01
73780;SHT30;62093;37.614;15.072;2024-01-25T03:08:56;15.31;57.54
73780;SHT30;62093;37.614;15.072;2024-01-25T03:11:22;15.33;57.62
73780;SHT30;62093;37.614;15.072;2024-01-25T03:13:48;15.30;57.69
73780;SHT30;62093;37.614;15.072;2024-01-25T03:16:14;15.30;57.81
73780;SHT30;62093;37.614;15.072;2024-01-25T03:18:40;15.29;57.65
73780;SHT30;62093;37.614;15.072;2024-01-25T03:21:06;15.29;57.37
73780;SHT30;62093;37.614;15.072;2024-01-25T03:23:32;15.29;57.32
73780;SHT30;62093;37.614;15.072;2024-01-25T03:25:58;15.27;57.47
73780;SHT30;62093;37.614;15.072;2024-01-25T03:28:24;15.29;57.39
73780;SHT30;62093;37.614;15.072;2024-01-25T03:30:50;15.27;57.85
73780;SHT30;62093;37.614;15.072;2024-01-25T03:33:16;15.24;57.64
73780;SHT30;62093;37.614;15.072;2024-01-25T03:35:42;15.33;57.33
73780;SHT30;62093;37.614;15.072;2024-01-25T03:38:08;15.29;57.46
73780;SHT30;62093;37.614;15.072;2024-01-25T03:40:34;15.30;57.60
73780;SHT30;62093;37.614;15.072;2024-01-25T03:43:00;15.26;57.47
73780;SHT30;62093;37.614;15.072;2024-01-25T03:45:26;15.29;56.90
73780;SHT30;62093;37.614;15.072;2024-01-25T03:47:52;15.24;57.51
73780;SHT30;62093;37.614;15.072;2024-01-25T03:50:18;15.23;57.42
73780;SHT30;62093;37.614;15.072;2024-01-25T03:52:44;15.23;57.62
73780;SHT30;62093;37.614;15.072;2024-01-25T03:55:11;15.26;57.78
73780;SHT30;62093;37.614;15.072;2024-01-25T03:57:37;15.31;57.04
73780;SHT30;62093;37.614;15.072;2024-01-25T04:00:06;15.24;56.75
73780;SHT30;62093;37.614;15.072;2024-01-25T04:02:32;15.24;57.09
73780;SHT30;62093;37.614;15.072;2024-01-25T04:04:59;15.29;57.40
73780;SHT30;62093;37.614;15.072;2024-01-25T04:07:25;15.41;57.76
73780;SHT30;62093;37.614;15.072;2024-01-25T04:09:50;15.54;57.40
73780;SHT30;62093;37.614;15.072;2024-01-25T04:12:16;15.68;56.89
73780;SHT30;62093;37.614;15.072;2024-01-25T04:14:42;15.85;56.52
73780;SHT30;62093;37.614;15.072;2024-01-25T04:17:08;15.90;56.08
73780;SHT30;62093;37.614;15.072;2024-01-25T04:19:35;15.91;55.85
73780;SHT30;62093;37.614;15.072;2024-01-25T04:22:01;15.92;55.95
73780;SHT30;62093;37.614;15.072;2024-01-25T04:24:27;15.94;55.62
73780;SHT30;62093;37.614;15.072;2024-01-25T04:26:53;15.92;55.89
73780;SHT30;62093;37.614;15.072;2024-01-25T04:29:19;15.94;55.90
73780;SHT30;62093;37.614;15.072;2024-01-25T04:31:46;15.97;55.99
73780;SHT30;62093;37.614;15.072;2024-01-25T04:34:15;15.95;55.90
73780;SHT30;62093;37.614;15.072;2024-01-25T04:36:42;15.95;55.92
73780;SHT30;62093;37.614;15.072;2024-01-25T04:39:08;15.91;55.83
73780;SHT30;62093;37.614;15.072;2024-01-25T04:41:34;15.94;56.06
73780;SHT30;62093;37.614;15.072;2024-01-25T04:44:01;15.90;56.07
73780;SHT30;62093;37.614;15.072;2024-01-25T04:46:27;15.88;56.08
73780;SHT30;62093;37.614;15.072;2024-01-25T04:48:53;15.87;56.08
73780;SHT30;62093;37.614;15.072;2024-01-25T04:51:19;15.84;56.22
73780;SHT30;62093;37.614;15.072;2024-01-25T04:53:48;15.88;55.91
73780;SHT30;62093;37.614;15.072;2024-01-25T04:56:14;15.84;56.17
73780;SHT30;62093;37.614;15.072;2024-01-25T04:58:40;15.84;56.01
73780;SHT30;62093;37.614;15.072;2024-01-25T05:01:06;15.81;56.29
73780;SHT30;62093;37.614;15.072;2024-01-25T05:03:33;15.82;55.94
73780;SHT30;62093;37.614;15.072;2024-01-25T05:05:59;15.80;56.14
73780;SHT30;62093;37.614;15.072;2024-01-25T05:08:26;15.77;56.28
73780;SHT30;62093;37.614;15.072;2024-01-25T05:10:52;15.78;56.47
73780;SHT30;62093;37.614;15.072;2024-01-25T05:13:18;15.78;56.42
73780;SHT30;62093;37.614;15.072;2024-01-25T05:15:44;15.74;56.43
73780;SHT30;62093;37.614;15.072;2024-01-25T05:18:10;15.75;56.17
73780;SHT30;62093;37.614;15.072;2024-01-25T05:20:36;15.70;56.61
73780;SHT30;62093;37.614;15.072;2024-01-25T05:23:04;15.70;56.75
73780;SHT30;62093;37.614;15.072;2024-01-25T05:25:30;15.70;56.36
73780;SHT30;62093;37.614;15.072;2024-01-25T05:27:57;15.70;56.54
73780;SHT30;62093;37.614;15.072;2024-01-25T05:30:24;15.72;56.32
73780;SHT30;62093;37.614;15.072;2024-01-25T05:32:50;15.68;56.61
73780;SHT30;62093;37.614;15.072;2024-01-25T05:35:19;15.65;56.54
73780;SHT30;62093;37.614;15.072;2024-01-25T05:37:45;15.68;56.96
73780;SHT30;62093;37.614;15.072;2024-01-25T05:40:12;15.68;56.01
73780;SHT30;62093;37.614;15.072;2024-01-25T05:42:39;15.65;56.48
73780;SHT30;62093;37.614;15.072;2024-01-25T05:45:06;15.58;57.04
73780;SHT30;62093;37.614;15.072;2024-01-25T05:47:32;15.53;56.37
73780;SHT30;62093;37.614;15.072;2024-01-25T05:49:58;15.54;56.39
73780;SHT30;62093;37.614;15.072;2024-01-25T05:52:25;15.44;56.02
73780;SHT30;62093;37.614;15.072;2024-01-25T05:54:51;15.47;56.50
73780;SHT30;62093;37.614;15.072;2024-01-25T05:57:17;15.43;56.76
73780;SHT30;62093;37.614;15.072;2024-01-25T05:59:44;15.41;56.40
73780;SHT30;62093;37.614;15.072;2024-01-25T06:02:10;15.34;56.62
73780;SHT30;62093;37.614;15.072;2024-01-25T06:04:36;15.34;56.63
73780;SHT30;62093;37.614;15.072;2024-01-25T06:07:03;15.36;56.32
73780;SHT30;62093;37.614;15.072;2024-01-25T06:09:29;15.33;56.03
73780;SHT30;62093;37.614;15.072;2024-01-25T06:11:55;15.34;57.02
73780;SHT30;62093;37.614;15.072;2024-01-25T06:14:21;15.31;56.92
73780;SHT30;62093;37.614;15.072;2024-01-25T06:16:47;15.30;55.99
73780;SHT30;62093;37.614;15.072;2024-01-25T06:19:13;15.26;56.41
73780;SHT30;62093;37.614;15.072;2024-01-25T06:21:39;15.29;56.61
73780;SHT30;62093;37.614;15.072;2024-01-25T06:24:05;15.30;56.84
73780;SHT30;62093;37.614;15.072;2024-01-25T06:26:31;15.29;57.25
73780;SHT30;62093;37.614;15.072;2024-01-25T06:28:57;15.30;56.57
73780;SHT30;62093;37.614;15.072;2024-01-25T06:31:26;15.31;57.18
73780;SHT30;62093;37.614;15.072;2024-01-25T06:33:52;15.33;56.53
73780;SHT30;62093;37.614;15.072;2024-01-25T06:36:19;15.33;56.68
73780;SHT30;62093;37.614;15.072;2024-01-25T06:38:45;15.30;56.56
73780;SHT30;62093;37.614;15.072;2024-01-25T06:41:11;15.29;56.93
73780;SHT30;62093;37.614;15.072;2024-01-25T06:43:37;15.30;57.24
73780;SHT30;62093;37.614;15.072;2024-01-25T06:46:03;15.36;57.35
73780;SHT30;62093;37.614;15.072;2024-01-25T06:48:29;15.29;56.61
73780;SHT30;62093;37.614;15.072;2024-01-25T06:50:55;15.31;57.26
73780;SHT30;62093;37.614;15.072;2024-01-25T06:53:21;15.30;56.54
73780;SHT30;62093;37.614;15.072;2024-01-25T06:55:47;15.30;56.71
73780;SHT30;62093;37.614;15.072;2024-01-25T06:58:13;15.29;56.86
73780;SHT30;62093;37.614;15.072;2024-01-25T07:00:39;15.30;56.70
73780;SHT30;62093;37.614;15.072;2024-01-25T07:03:08;15.29;57.01
73780;SHT30;62093;37.614;15.072;2024-01-25T07:05:34;15.33;57.01
73780;SHT30;62093;37.614;15.072;2024-01-25T07:08:04;15.36;56.96
73780;SHT30;62093;37.614;15.072;2024-01-25T07:10:31;15.34;56.84
73780;SHT30;62093;37.614;15.072;2024-01-25T07:12:57;15.39;56.99
73780;SHT30;62093;37.614;15.072;2024-01-25T07:15:23;15.39;57.08
73780;SHT30;62093;37.614;15.072;2024-01-25T07:17:49;15.40;56.79
73780;SHT30;62093;37.614;15.072;2024-01-25T07:20:15;15.47;57.12
73780;SHT30;62093;37.614;15.072;2024-01-25T07:22:41;15.44;56.94
73780;SHT30;62093;37.614;15.072;2024-01-25T07:25:07;15.44;56.71
73780;SHT30;62093;37.614;15.072;2024-01-25T07:27:33;15.46;56.69
73780;SHT30;62093;37.614;15.072;2024-01-25T07:29:59;15.44;56.93
73780;SHT30;62093;37.614;15.072;2024-01-25T07:32:25;15.47;56.89
73780;SHT30;62093;37.614;15.072;2024-01-25T07:34:51;15.46;56.55
73780;SHT30;62093;37.614;15.072;2024-01-25T07:37:17;15.46;57.12
73780;SHT30;62093;37.614;15.072;2024-01-25T07:39:44;15.53;57.18
73780;SHT30;62093;37.614;15.072;2024-01-25T07:42:11;15.49;56.87
73780;SHT30;62093;37.614;15.072;2024-01-25T07:44:38;15.47;57.20
73780;SHT30;62093;37.614;15.072;2024-01-25T07:47:04;15.54;56.86
73780;SHT30;62093;37.614;15.072;2024-01-25T07:49:29;15.55;56.84
73780;SHT30;62093;37.614;15.072;2024-01-25T07:51:55;15.53;56.94
73780;SHT30;62093;37.614;15.072;2024-01-25T07:54:22;15.51;57.08
73780;SHT30;62093;37.614;15.072;2024-01-25T07:56:48;15.57;57.16
73780;SHT30;62093;37.614;15.072;2024-01-25T07:59:14;15.51;56.76
73780;SHT30;62093;37.614;15.072;2024-01-25T08:01:40;15.51;57.23
73780;SHT30;62093;37.614;15.072;2024-01-25T08:04:06;15.51;57.08
73780;SHT30;62093;37.614;15.072;2024-01-25T08:06:32;15.55;56.76
73780;SHT30;62093;37.614;15.072;2024-01-25T08:08:58;15.57;57.24
73780;SHT30;62093;37.614;15.072;2024-01-25T08:11:25;15.60;56.89
73780;SHT30;62093;37.614;15.072;2024-01-25T08:13:51;15.61;56.97
73780;SHT30;62093;37.614;15.072;2024-01-25T08:16:17;15.64;56.90
73780;SHT30;62093;37.614;15.072;2024-01-25T08:18:49;15.64;56.59
73780;SHT30;62093;37.614;15.072;2024-01-25T08:21:15;15.65;57.03
73780;SHT30;62093;37.614;15.072;2024-01-25T08:23:41;15.67;56.71
73780;SHT30;62093;37.614;15.072;2024-01-25T08:26:08;15.68;56.43
73780;SHT30;62093;37.614;15.072;2024-01-25T08:28:41;15.65;56.67
73780;SHT30;62093;37.614;15.072;2024-01-25T08:31:11;15.67;57.14
73780;SHT30;62093;37.614;15.072;2024-01-25T08:33:38;15.70;56.79
73780;SHT30;62093;37.614;15.072;2024-01-25T08:36:07;15.71;56.68
73780;SHT30;62093;37.614;15.072;2024-01-25T08:38:33;15.70;56.73
73780;SHT30;62093;37.614;15.072;2024-01-25T08:40:59;15.71;56.86
73780;SHT30;62093;37.614;15.072;2024-01-25T08:43:25;15.77;56.80
73780;SHT30;62093;37.614;15.072;2024-01-25T08:45:51;15.75;56.85
73780;SHT30;62093;37.614;15.072;2024-01-25T08:48:17;15.72;57.12
73780;SHT30;62093;37.614;15.072;2024-01-25T08:50:43;15.74;57.01
73780;SHT30;62093;37.614;15.072;2024-01-25T08:53:09;15.80;56.84
73780;SHT30;62093;37.614;15.072;2024-01-25T08:55:35;15.78;56.87
73780;SHT30;62093;37.614;15.072;2024-01-25T08:58:01;15.77;56.87
73780;SHT30;62093;37.614;15.072;2024-01-25T09:00:27;15.75;56.70
73780;SHT30;62093;37.614;15.072;2024-01-25T09:02:53;15.81;56.93
73780;SHT30;62093;37.614;15.072;2024-01-25T09:05:19;15.85;56.83
73780;SHT30;62093;37.614;15.072;2024-01-25T09:07:45;15.85;56.75
73780;SHT30;62093;37.614;15.072;2024-01-25T09:10:13;15.82;56.86
73780;SHT30;62093;37.614;15.072;2024-01-25T09:12:39;15.88;56.65
73780;SHT30;62093;37.614;15.072;2024-01-25T09:15:05;15.85;56.73
73780;SHT30;62093;37.614;15.072;2024-01-25T09:17:31;15.87;56.75
73780;SHT30;62093;37.614;15.072;2024-01-25T09:19:58;15.87;56.93
73780;SHT30;62093;37.614;15.072;2024-01-25T09:22:28;15.87;56.77
73780;SHT30;62093;37.614;15.072;2024-01-25T09:24:54;15.88;56.42
73780;SHT30;62093;37.614;15.072;2024-01-25T09:27:20;15.85;56.57
73780;SHT30;62093;37.614;15.072;2024-01-25T09:29:46;15.84;56.68
73780;SHT30;62093;37.614;15.072;2024-01-25T09:32:12;15.87;56.72
73780;SHT30;62093;37.614;15.072;2024-01-25T09:34:38;15.87;56.23
73780;SHT30;62093;37.614;15.072;2024-01-25T09:37:04;15.94;56.75
73780;SHT30;62093;37.614;15.072;2024-01-25T09:39:31;15.91;56.28
73780;SHT30;62093;37.614;15.072;2024-01-25T09:41:57;15.91;56.49
73780;SHT30;62093;37.614;15.072;2024-01-25T09:44:24;15.92;56.30
73780;SHT30;62093;37.614;15.072;2024-01-25T09:46:51;15.91;56.58
73780;SHT30;62093;37.614;15.072;2024-01-25T09:49:17;15.94;56.51
73780;SHT30;62093;37.614;15.072;2024-01-25T09:51:43;15.95;56.65
73780;SHT30;62093;37.614;15.072;2024-01-25T09:54:10;15.94;56.22
73780;SHT30;62093;37.614;15.072;2024-01-25T09:56:36;15.97;56.38
73780;SHT30;62093;37.614;15.072;2024-01-25T09:59:02;16.00;56.54
73780;SHT30;62093;37.614;15.072;2024-01-25T10:01:30;16.00;56.27
73780;SHT30;62093;37.614;15.072;2024-01-25T10:03:56;16.00;56.43
73780;SHT30;62093;37.614;15.072;2024-01-25T10:06:22;16.02;56.37
73780;SHT30;62093;37.614;15.072;2024-01-25T10:08:48;16.04;56.46
73780;SHT30;62093;37.614;15.072;2024-01-25T10:11:15;16.02;56.24
73780;SHT30;62093;37.614;15.072;2024-01-25T10:13:42;16.04;56.13
73780;SHT30;62093;37.614;15.072;2024-01-25T10:16:15;16.06;56.52
73780;SHT30;62093;37.614;15.072;2024-01-25T10:18:43;16.08;56.49
73780;SHT30;62093;37.614;15.072;2024-01-25T10:21:10;16.08;56.41
73780;SHT30;62093;37.614;15.072;2024-01-25T10:23:37;16.11;56.59
73780;SHT30;62093;37.614;15.072;2024-01-25T10:26:03;16.08;56.54
73780;SHT30;62093;37.614;15.072;2024-01-25T10:28:29;16.12;56.36
73780;SHT30;62093;37.614;15.072;2024-01-25T10:31:00;16.09;56.51
73780;SHT30;62093;37.614;15.072;2024-01-25T10:33:27;16.11;56.39
73780;SHT30;62093;37.614;15.072;2024-01-25T10:35:54;16.11;56.50
73780;SHT30;62093;37.614;15.072;2024-01-25T10:38:21;16.12;56.36
73780;SHT30;62093;37.614;15.072;2024-01-25T10:40:47;16.11;56.35
73780;SHT30;62093;37.614;15.072;2024-01-25T10:43:13;16.15;56.32
73780;SHT30;62093;37.614;15.072;2024-01-25T10:45:39;16.18;56.43
73780;SHT30;62093;37.614;15.072;2024-01-25T10:48:07;16.19;56.02
73780;SHT30;62093;37.614;15.072;2024-01-25T10:50:33;16.15;56.19
73780;SHT30;62093;37.614;15.072;2024-01-25T10:53:00;16.16;56.19
73780;SHT30;62093;37.614;15.072;2024-01-25T10:55:27;16.16;56.27
73780;SHT30;62093;37.614;15.072;2024-01-25T10:57:54;16.19;56.40
73780;SHT30;62093;37.614;15.072;2024-01-25T11:00:20;16.22;56.37
73780;SHT30;62093;37.614;15.072;2024-01-25T11:02:47;16.26;56.30
73780;SHT30;62093;37.614;15.072;2024-01-25T11:05:16;16.21;56.39
73780;SHT30;62093;37.614;15.072;2024-01-25T11:07:44;16.22;56.34
73780;SHT30;62093;37.614;15.072;2024-01-25T11:10:16;16.21;56.26
73780;SHT30;62093;37.614;15.072;2024-01-25T11:12:59;16.25;56.27
73780;SHT30;62093;37.614;15.072;2024-01-25T11:15:33;16.23;56.19
73780;SHT30;62093;37.614;15.072;2024-01-25T11:18:00;16.28;55.48
73780;SHT30;62093;37.614;15.072;2024-01-25T11:20:28;16.19;56.22
73780;SHT30;62093;37.614;15.072;2024-01-25T11:22:59;16.25;56.35
73780;SHT30;62093;37.614;15.072;2024-01-25T11:25:29;16.26;56.28
73780;SHT30;62093;37.614;15.072;2024-01-25T11:27:55;16.22;56.11
73780;SHT30;62093;37.614;15.072;2024-01-25T11:30:21;16.28;56.06
73780;SHT30;62093;37.614;15.072;2024-01-25T11:32:48;16.30;55.99
73780;SHT30;62093;37.614;15.072;2024-01-25T11:35:15;16.26;56.08
73780;SHT30;62093;37.614;15.072;2024-01-25T11:37:48;16.26;56.12
73780;SHT30;62093;37.614;15.072;2024-01-25T11:40:16;16.26;56.22
73780;SHT30;62093;37.614;15.072;2024-01-25T11:42:43;16.29;56.20
73780;SHT30;62093;37.614;15.072;2024-01-25T11:45:11;16.29;56.14
73780;SHT30;62093;37.614;15.072;2024-01-25T11:47:38;16.30;55.83
73780;SHT30;62093;37.614;15.072;2024-01-25T11:50:06;16.30;56.08
73780;SHT30;62093;37.614;15.072;2024-01-25T11:52:32;16.30;56.06
73780;SHT30;62093;37.614;15.072;2024-01-25T11:55:02;16.30;56.05
73780;SHT30;62093;37.614;15.072;2024-01-25T11:57:30;16.35;56.07
73780;SHT30;62093;37.614;15.072;2024-01-25T11:59:58;16.33;56.09
73780;SHT30;62093;37.614;15.072;2024-01-25T12:02:24;16.32;56.09
73780;SHT30;62093;37.614;15.072;2024-01-25T12:04:51;16.30;56.08
73780;SHT30;62093;37.614;15.072;2024-01-25T12:07:20;16.33;56.03
73780;SHT30;62093;37.614;15.072;2024-01-25T12:10:07;16.33;56.04
73780;SHT30;62093;37.614;15.072;2024-01-25T12:12:37;16.35;56.03
73780;SHT30;62093;37.614;15.072;2024-01-25T12:15:06;16.32;56.06
73780;SHT30;62093;37.614;15.072;2024-01-25T12:17:36;16.32;56.16
73780;SHT30;62093;37.614;15.072;2024-01-25T12:20:02;16.33;56.21
73780;SHT30;62093;37.614;15.072;2024-01-25T12:22:29;16.35;56.20
73780;SHT30;62093;37.614;15.072;2024-01-25T12:24:56;16.36;56.14
73780;SHT30;62093;37.614;15.072;2024-01-25T12:27:25;16.35;56.06
73780;SHT30;62093;37.614;15.072;2024-01-25T12:29:53;16.33;56.17
73780;SHT30;62093;37.614;15.072;2024-01-25T12:32:20;16.36;56.23
73780;SHT30;62093;37.614;15.072;2024-01-25T12:34:59;16.35;56.19
73780;SHT30;62093;37.614;15.072;2024-01-25T12:37:29;16.33;56.34
73780;SHT30;62093;37.614;15.072;2024-01-25T12:39:55;16.38;56.21
73780;SHT30;62093;37.614;15.072;2024-01-25T12:42:22;16.41;56.10
73780;SHT30;62093;37.614;15.072;2024-01-25T12:44:48;16.38;56.25
73780;SHT30;62093;37.614;15.072;2024-01-25T12:47:14;16.38;56.21
73780;SHT30;62093;37.614;15.072;2024-01-25T12:49:41;16.41;56.28
73780;SHT30;62093;37.614;15.072;2024-01-25T12:52:13;16.39;56.26
73780;SHT30;62093;37.614;15.072;2024-01-25T12:54:40;16.36;56.23
73780;SHT30;62093;37.614;15.072;2024-01-25T12:57:06;16.39;56.21
73780;SHT30;62093;37.614;15.072;2024-01-25T12:59:36;16.41;56.28
73780;SHT30;62093;37.614;15.072;2024-01-25T13:02:04;16.39;56.04
73780;SHT30;62093;37.614;15.072;2024-01-25T13:04:30;16.41;56.34
73780;SHT30;62093;37.614;15.072;2024-01-25T13:06:56;16.42;56.30
73780;SHT30;62093;37.614;15.072;2024-01-25T13:09:23;16.42;56.32
73780;SHT30;62093;37.614;15.072;2024-01-25T13:11:49;16.45;56.26
73780;SHT30;62093;37.614;15.072;2024-01-25T13:14:16;16.43;56.35
73780;SHT30;62093;37.614;15.072;2024-01-25T13:16:42;16.39;56.25
73780;SHT30;62093;37.614;15.072;2024-01-25T13:19:08;16.45;56.12
73780;SHT30;62093;37.614;15.072;2024-01-25T13:21:34;16.38;56.21
73780;SHT30;62093;37.614;15.072;2024-01-25T13:24:00;16.39;56.32
73780;SHT30;62093;37.614;15.072;2024-01-25T13:26:27;16.39;56.29
73780;SHT30;62093;37.614;15.072;2024-01-25T13:28:53;16.39;56.39
73780;SHT30;62093;37.614;15.072;2024-01-25T13:31:19;16.42;56.31
73780;SHT30;62093;37.614;15.072;2024-01-25T13:33:44;16.42;56.39
73780;SHT30;62093;37.614;15.072;2024-01-25T13:36:13;16.41;56.22
73780;SHT30;62093;37.614;15.072;2024-01-25T13:38:40;16.36;56.22
73780;SHT30;62093;37.614;15.072;2024-01-25T13:41:06;16.39;56.29
73780;SHT30;62093;37.614;15.072;2024-01-25T13:43:32;16.41;56.17
73780;SHT30;62093;37.614;15.072;2024-01-25T13:45:58;16.42;56.28
73780;SHT30;62093;37.614;15.072;2024-01-25T13:48:24;16.41;56.26
73780;SHT30;62093;37.614;15.072;2024-01-25T13:50:50;16.41;56.08
73780;SHT30;62093;37.614;15.072;2024-01-25T13:53:16;16.41;56.35
73780;SHT30;62093;37.614;15.072;2024-01-25T13:55:43;16.42;56.26
73780;SHT30;62093;37.614;15.072;2024-01-25T13:58:09;16.42;56.19
73780;SHT30;62093;37.614;15.072;2024-01-25T14:00:36;16.42;55.96
73780;SHT30;62093;37.614;15.072;2024-01-25T14:03:02;16.42;56.06
73780;SHT30;62093;37.614;15.072;2024-01-25T14:05:28;16.42;56.16
73780;SHT30;62093;37.614;15.072;2024-01-25T14:07:54;16.42;56.19
73780;SHT30;62093;37.614;15.072;2024-01-25T14:10:20;16.42;56.20
73780;SHT30;62093;37.614;15.072;2024-01-25T14:12:46;16.42;56.12
73780;SHT30;62093;37.614;15.072;2024-01-25T14:15:13;16.39;56.13
73780;SHT30;62093;37.614;15.072;2024-01-25T14:17:38;16.43;56.18
73780;SHT30;62093;37.614;15.072;2024-01-25T14:20:05;16.41;56.11
73780;SHT30;62093;37.614;15.072;2024-01-25T14:22:31;16.41;56.26
73780;SHT30;62093;37.614;15.072;2024-01-25T14:24:57;16.38;56.31
73780;SHT30;62093;37.614;15.072;2024-01-25T14:27:23;16.41;56.28
73780;SHT30;62093;37.614;15.072;2024-01-25T14:29:49;16.42;56.28
73780;SHT30;62093;37.614;15.072;2024-01-25T14:32:15;16.41;56.30
73780;SHT30;62093;37.614;15.072;2024-01-25T14:34:41;16.42;56.11
73780;SHT30;62093;37.614;15.072;2024-01-25T14:37:07;16.41;56.19
73780;SHT30;62093;37.614;15.072;2024-01-25T14:39:36;16.42;56.28
73780;SHT30;62093;37.614;15.072;2024-01-25T14:42:04;16.41;56.29
73780;SHT30;62093;37.614;15.072;2024-01-25T14:44:34;16.42;56.21
73780;SHT30;62093;37.614;15.072;2024-01-25T14:47:00;16.42;56.14
73780;SHT30;62093;37.614;15.072;2024-01-25T14:49:26;16.41;56.23
73780;SHT30;62093;37.614;15.072;2024-01-25T14:51:53;16.42;56.25
73780;SHT30;62093;37.614;15.072;2024-01-25T14:54:18;16.42;56.20
73780;SHT30;62093;37.614;15.072;2024-01-25T14:56:44;16.42;56.22
73780;SHT30;62093;37.614;15.072;2024-01-25T14:59:10;16.42;56.15
73780;SHT30;62093;37.614;15.072;2024-01-25T15:01:37;16.43;56.14
73780;SHT30;62093;37.614;15.072;2024-01-25T15:04:03;16.38;56.15
73780;SHT30;62093;37.614;15.072;2024-01-25T15:06:48;16.41;56.02
73780;SHT30;62093;37.614;15.072;2024-01-25T15:09:15;16.39;56.26
73780;SHT30;62093;37.614;15.072;2024-01-25T15:11:40;16.38;56.07